YROV weather

Ross River Airport
Northern Territory, Australia

Public forecast

Using degrees Celsius for public forecast. Weather courtesy of forecast.io.

METAR (pilot weather report)

Closest report is Alice Springs Airport, 36.0 nm (66.7 km) WSW. Retrieved 2019/03/25 20:30 UTC (7 minutes ago):

YBAS 252030Z AUTO 13011KT 9999 // ////// 20/11 Q1018 RF00.0/001.6

TAF (pilot weather forecast)

Closest forecast is Alice Springs Airport, 36.0 nm (66.7 km) WSW. Retrieved 2019/03/25 18:00 UTC (3 hours ago):

TAF YBAS 251659Z 2518/2618 15014KT 9999 BKN020 FM260000 14018G28KT 9999 SCT030 FM260800 14010KT CAVOK